sensor_id;sensor_type;location;lat;lon;timestamp;P1;durP1;ratioP1;P2;durP2;ratioP2
5149;SDS011;2593;52.466;13.436;2023-05-21T00:01:51;27.10;;;18.63;;
5149;SDS011;2593;52.466;13.436;2023-05-21T00:04:17;29.27;;;18.90;;
5149;SDS011;2593;52.466;13.436;2023-05-21T00:06:43;28.10;;;18.20;;
5149;SDS011;2593;52.466;13.436;2023-05-21T00:09:09;30.20;;;19.23;;
5149;SDS011;2593;52.466;13.436;2023-05-21T00:11:36;26.30;;;18.80;;
5149;SDS011;2593;52.466;13.436;2023-05-21T00:14:03;32.73;;;20.47;;
5149;SDS011;2593;52.466;13.436;2023-05-21T00:16:29;31.50;;;20.00;;
5149;SDS011;2593;52.466;13.436;2023-05-21T00:18:55;32.30;;;18.27;;
5149;SDS011;2593;52.466;13.436;2023-05-21T00:21:22;27.00;;;18.77;;
5149;SDS011;2593;52.466;13.436;2023-05-21T00:23:50;32.30;;;18.57;;
5149;SDS011;2593;52.466;13.436;2023-05-21T00:26:18;28.67;;;18.43;;
5149;SDS011;2593;52.466;13.436;2023-05-21T00:28:44;23.73;;;18.17;;
5149;SDS011;2593;52.466;13.436;2023-05-21T00:31:10;22.97;;;18.40;;
5149;SDS011;2593;52.466;13.436;2023-05-21T00:33:36;35.17;;;19.80;;
5149;SDS011;2593;52.466;13.436;2023-05-21T00:36:02;26.40;;;18.63;;
5149;SDS011;2593;52.466;13.436;2023-05-21T00:38:30;25.37;;;18.23;;
5149;SDS011;2593;52.466;13.436;2023-05-21T00:40:59;30.50;;;19.93;;
5149;SDS011;2593;52.466;13.436;2023-05-21T00:43:25;25.70;;;19.17;;
5149;SDS011;2593;52.466;13.436;2023-05-21T00:45:51;24.80;;;18.50;;
5149;SDS011;2593;52.466;13.436;2023-05-21T00:48:17;30.70;;;19.20;;
5149;SDS011;2593;52.466;13.436;2023-05-21T00:50:44;26.50;;;18.47;;
5149;SDS011;2593;52.466;13.436;2023-05-21T00:53:11;29.33;;;18.60;;
5149;SDS011;2593;52.466;13.436;2023-05-21T00:55:39;26.80;;;18.30;;
5149;SDS011;2593;52.466;13.436;2023-05-21T00:58:05;21.60;;;17.60;;
5149;SDS011;2593;52.466;13.436;2023-05-21T01:00:32;23.40;;;16.80;;
5149;SDS011;2593;52.466;13.436;2023-05-21T01:02:59;31.13;;;18.50;;
5149;SDS011;2593;52.466;13.436;2023-05-21T01:05:26;29.23;;;19.30;;
5149;SDS011;2593;52.466;13.436;2023-05-21T01:07:52;29.40;;;20.07;;
5149;SDS011;2593;52.466;13.436;2023-05-21T01:10:18;26.73;;;18.10;;
5149;SDS011;2593;52.466;13.436;2023-05-21T01:12:45;24.33;;;17.20;;
5149;SDS011;2593;52.466;13.436;2023-05-21T01:15:12;28.77;;;19.53;;
5149;SDS011;2593;52.466;13.436;2023-05-21T01:17:38;26.17;;;17.87;;
5149;SDS011;2593;52.466;13.436;2023-05-21T01:20:05;30.63;;;18.93;;
5149;SDS011;2593;52.466;13.436;2023-05-21T01:22:35;25.40;;;17.00;;
5149;SDS011;2593;52.466;13.436;2023-05-21T01:25:03;27.77;;;18.60;;
5149;SDS011;2593;52.466;13.436;2023-05-21T01:27:29;29.90;;;19.50;;
5149;SDS011;2593;52.466;13.436;2023-05-21T01:29:55;24.20;;;18.03;;
5149;SDS011;2593;52.466;13.436;2023-05-21T01:32:37;31.90;;;19.40;;
5149;SDS011;2593;52.466;13.436;2023-05-21T01:35:08;24.93;;;19.37;;
5149;SDS011;2593;52.466;13.436;2023-05-21T01:37:45;30.27;;;19.10;;
5149;SDS011;2593;52.466;13.436;2023-05-21T01:40:15;36.83;;;19.47;;
5149;SDS011;2593;52.466;13.436;2023-05-21T01:42:42;29.07;;;18.30;;
5149;SDS011;2593;52.466;13.436;2023-05-21T01:45:09;29.20;;;18.13;;
5149;SDS011;2593;52.466;13.436;2023-05-21T01:47:36;35.20;;;21.40;;
5149;SDS011;2593;52.466;13.436;2023-05-21T01:50:03;27.43;;;19.13;;
5149;SDS011;2593;52.466;13.436;2023-05-21T01:52:30;29.10;;;19.33;;
5149;SDS011;2593;52.466;13.436;2023-05-21T01:54:56;30.17;;;19.53;;
5149;SDS011;2593;52.466;13.436;2023-05-21T01:57:24;31.87;;;21.87;;
5149;SDS011;2593;52.466;13.436;2023-05-21T01:59:50;29.57;;;20.57;;
5149;SDS011;2593;52.466;13.436;2023-05-21T02:02:17;27.10;;;19.10;;
5149;SDS011;2593;52.466;13.436;2023-05-21T02:04:43;37.50;;;19.90;;
5149;SDS011;2593;52.466;13.436;2023-05-21T02:07:10;31.70;;;20.97;;
5149;SDS011;2593;52.466;13.436;2023-05-21T02:09:39;30.60;;;21.27;;
5149;SDS011;2593;52.466;13.436;2023-05-21T02:12:05;30.80;;;20.80;;
5149;SDS011;2593;52.466;13.436;2023-05-21T02:14:32;38.40;;;21.63;;
5149;SDS011;2593;52.466;13.436;2023-05-21T02:16:58;38.70;;;21.37;;
5149;SDS011;2593;52.466;13.436;2023-05-21T02:19:25;29.47;;;21.60;;
5149;SDS011;2593;52.466;13.436;2023-05-21T02:21:51;32.50;;;22.90;;
5149;SDS011;2593;52.466;13.436;2023-05-21T02:24:17;34.50;;;22.97;;
5149;SDS011;2593;52.466;13.436;2023-05-21T02:26:43;32.47;;;22.50;;
5149;SDS011;2593;52.466;13.436;2023-05-21T02:29:09;33.33;;;22.77;;
5149;SDS011;2593;52.466;13.436;2023-05-21T02:31:35;32.23;;;23.23;;
5149;SDS011;2593;52.466;13.436;2023-05-21T02:34:02;32.63;;;24.00;;
5149;SDS011;2593;52.466;13.436;2023-05-21T02:36:28;38.63;;;22.43;;
5149;SDS011;2593;52.466;13.436;2023-05-21T02:38:57;35.17;;;24.53;;
5149;SDS011;2593;52.466;13.436;2023-05-21T02:41:23;31.97;;;22.67;;
5149;SDS011;2593;52.466;13.436;2023-05-21T02:43:50;35.20;;;24.40;;
5149;SDS011;2593;52.466;13.436;2023-05-21T02:46:16;33.60;;;23.53;;
5149;SDS011;2593;52.466;13.436;2023-05-21T02:48:42;38.53;;;23.10;;
5149;SDS011;2593;52.466;13.436;2023-05-21T02:51:08;40.70;;;24.30;;
5149;SDS011;2593;52.466;13.436;2023-05-21T02:53:35;37.10;;;25.43;;
5149;SDS011;2593;52.466;13.436;2023-05-21T02:56:01;36.60;;;25.53;;
5149;SDS011;2593;52.466;13.436;2023-05-21T02:58:27;42.93;;;26.50;;
5149;SDS011;2593;52.466;13.436;2023-05-21T03:00:53;34.50;;;23.87;;
5149;SDS011;2593;52.466;13.436;2023-05-21T03:03:19;33.90;;;24.80;;
5149;SDS011;2593;52.466;13.436;2023-05-21T03:05:45;37.10;;;25.33;;
5149;SDS011;2593;52.466;13.436;2023-05-21T03:08:12;39.83;;;26.50;;
5149;SDS011;2593;52.466;13.436;2023-05-21T03:10:38;38.03;;;26.20;;
5149;SDS011;2593;52.466;13.436;2023-05-21T03:13:04;42.17;;;26.60;;
5149;SDS011;2593;52.466;13.436;2023-05-21T03:15:30;40.57;;;28.33;;
5149;SDS011;2593;52.466;13.436;2023-05-21T03:17:57;35.83;;;26.37;;
5149;SDS011;2593;52.466;13.436;2023-05-21T03:20:23;40.00;;;26.77;;
5149;SDS011;2593;52.466;13.436;2023-05-21T03:22:50;44.00;;;28.40;;
5149;SDS011;2593;52.466;13.436;2023-05-21T03:25:19;36.73;;;26.30;;
5149;SDS011;2593;52.466;13.436;2023-05-21T03:27:46;43.33;;;27.00;;
5149;SDS011;2593;52.466;13.436;2023-05-21T03:30:12;39.77;;;28.10;;
5149;SDS011;2593;52.466;13.436;2023-05-21T03:32:38;40.17;;;28.77;;
5149;SDS011;2593;52.466;13.436;2023-05-21T03:35:05;41.97;;;29.40;;
5149;SDS011;2593;52.466;13.436;2023-05-21T03:37:31;40.57;;;27.53;;
5149;SDS011;2593;52.466;13.436;2023-05-21T03:39:57;38.40;;;28.53;;
5149;SDS011;2593;52.466;13.436;2023-05-21T03:42:23;46.27;;;28.67;;
5149;SDS011;2593;52.466;13.436;2023-05-21T03:44:49;40.47;;;28.80;;
5149;SDS011;2593;52.466;13.436;2023-05-21T03:47:15;40.60;;;28.00;;
5149;SDS011;2593;52.466;13.436;2023-05-21T03:49:41;49.93;;;28.70;;
5149;SDS011;2593;52.466;13.436;2023-05-21T03:52:07;48.20;;;29.40;;
5149;SDS011;2593;52.466;13.436;2023-05-21T03:54:33;41.67;;;27.37;;
5149;SDS011;2593;52.466;13.436;2023-05-21T03:56:59;50.60;;;30.87;;
5149;SDS011;2593;52.466;13.436;2023-05-21T03:59:26;46.70;;;28.87;;
5149;SDS011;2593;52.466;13.436;2023-05-21T04:01:52;47.50;;;29.43;;
5149;SDS011;2593;52.466;13.436;2023-05-21T04:04:18;46.27;;;30.53;;
5149;SDS011;2593;52.466;13.436;2023-05-21T04:06:44;44.93;;;30.30;;
5149;SDS011;2593;52.466;13.436;2023-05-21T04:09:10;48.77;;;29.00;;
5149;SDS011;2593;52.466;13.436;2023-05-21T04:11:36;47.00;;;31.03;;
5149;SDS011;2593;52.466;13.436;2023-05-21T04:14:02;48.27;;;29.53;;
5149;SDS011;2593;52.466;13.436;2023-05-21T04:16:28;44.70;;;28.60;;
5149;SDS011;2593;52.466;13.436;2023-05-21T04:18:54;41.30;;;29.00;;
5149;SDS011;2593;52.466;13.436;2023-05-21T04:21:20;44.67;;;30.00;;
5149;SDS011;2593;52.466;13.436;2023-05-21T04:23:46;45.20;;;30.70;;
5149;SDS011;2593;52.466;13.436;2023-05-21T04:26:12;46.80;;;32.50;;
5149;SDS011;2593;52.466;13.436;2023-05-21T04:28:40;49.57;;;29.90;;
5149;SDS011;2593;52.466;13.436;2023-05-21T04:31:06;46.73;;;29.77;;
5149;SDS011;2593;52.466;13.436;2023-05-21T04:33:32;44.70;;;30.53;;
5149;SDS011;2593;52.466;13.436;2023-05-21T04:35:59;39.70;;;29.00;;
5149;SDS011;2593;52.466;13.436;2023-05-21T04:38:27;42.20;;;30.80;;
5149;SDS011;2593;52.466;13.436;2023-05-21T04:40:54;40.67;;;29.23;;
5149;SDS011;2593;52.466;13.436;2023-05-21T04:43:22;39.27;;;28.80;;
5149;SDS011;2593;52.466;13.436;2023-05-21T04:45:52;48.63;;;30.10;;
5149;SDS011;2593;52.466;13.436;2023-05-21T04:48:18;44.53;;;29.63;;
5149;SDS011;2593;52.466;13.436;2023-05-21T04:50:44;39.07;;;27.80;;
5149;SDS011;2593;52.466;13.436;2023-05-21T04:53:11;41.73;;;28.30;;
5149;SDS011;2593;52.466;13.436;2023-05-21T04:55:37;41.90;;;29.17;;
5149;SDS011;2593;52.466;13.436;2023-05-21T04:58:04;42.03;;;29.80;;
5149;SDS011;2593;52.466;13.436;2023-05-21T05:00:31;39.20;;;28.77;;
5149;SDS011;2593;52.466;13.436;2023-05-21T05:02:57;44.27;;;28.20;;
5149;SDS011;2593;52.466;13.436;2023-05-21T05:05:24;44.60;;;27.90;;
5149;SDS011;2593;52.466;13.436;2023-05-21T05:07:50;43.13;;;28.20;;
5149;SDS011;2593;52.466;13.436;2023-05-21T05:10:16;42.87;;;28.17;;
5149;SDS011;2593;52.466;13.436;2023-05-21T05:12:42;42.40;;;26.93;;
5149;SDS011;2593;52.466;13.436;2023-05-21T05:15:08;42.87;;;30.13;;
5149;SDS011;2593;52.466;13.436;2023-05-21T05:17:34;44.60;;;28.67;;
5149;SDS011;2593;52.466;13.436;2023-05-21T05:20:00;41.97;;;28.70;;
5149;SDS011;2593;52.466;13.436;2023-05-21T05:22:26;40.43;;;27.30;;
5149;SDS011;2593;52.466;13.436;2023-05-21T05:24:52;42.23;;;26.53;;
5149;SDS011;2593;52.466;13.436;2023-05-21T05:27:18;40.77;;;27.60;;
5149;SDS011;2593;52.466;13.436;2023-05-21T05:29:44;38.87;;;27.37;;
5149;SDS011;2593;52.466;13.436;2023-05-21T05:32:10;40.20;;;27.87;;
5149;SDS011;2593;52.466;13.436;2023-05-21T05:34:36;36.00;;;26.20;;
5149;SDS011;2593;52.466;13.436;2023-05-21T05:37:03;40.40;;;27.23;;
5149;SDS011;2593;52.466;13.436;2023-05-21T05:39:29;41.30;;;27.77;;
5149;SDS011;2593;52.466;13.436;2023-05-21T05:41:55;41.43;;;27.67;;
5149;SDS011;2593;52.466;13.436;2023-05-21T05:44:21;60.63;;;28.07;;
5149;SDS011;2593;52.466;13.436;2023-05-21T05:46:47;40.07;;;25.70;;
5149;SDS011;2593;52.466;13.436;2023-05-21T05:49:13;36.53;;;25.40;;
5149;SDS011;2593;52.466;13.436;2023-05-21T05:51:39;36.90;;;26.17;;
5149;SDS011;2593;52.466;13.436;2023-05-21T05:54:06;36.97;;;25.87;;
5149;SDS011;2593;52.466;13.436;2023-05-21T05:56:32;56.10;;;25.50;;
5149;SDS011;2593;52.466;13.436;2023-05-21T05:58:58;35.33;;;24.40;;
5149;SDS011;2593;52.466;13.436;2023-05-21T06:01:24;36.10;;;22.63;;
5149;SDS011;2593;52.466;13.436;2023-05-21T06:03:50;35.97;;;23.23;;
5149;SDS011;2593;52.466;13.436;2023-05-21T06:06:16;34.40;;;23.80;;
5149;SDS011;2593;52.466;13.436;2023-05-21T06:08:43;32.87;;;23.13;;
5149;SDS011;2593;52.466;13.436;2023-05-21T06:11:09;31.00;;;22.53;;
5149;SDS011;2593;52.466;13.436;2023-05-21T06:13:35;32.20;;;23.27;;
5149;SDS011;2593;52.466;13.436;2023-05-21T06:16:01;30.97;;;23.03;;
5149;SDS011;2593;52.466;13.436;2023-05-21T06:18:27;30.30;;;22.87;;
5149;SDS011;2593;52.466;13.436;2023-05-21T06:20:53;27.10;;;21.70;;
5149;SDS011;2593;52.466;13.436;2023-05-21T06:23:20;33.87;;;22.67;;
5149;SDS011;2593;52.466;13.436;2023-05-21T06:25:46;29.70;;;21.67;;
5149;SDS011;2593;52.466;13.436;2023-05-21T06:28:12;37.23;;;23.30;;
5149;SDS011;2593;52.466;13.436;2023-05-21T06:30:38;31.30;;;23.97;;
5149;SDS011;2593;52.466;13.436;2023-05-21T06:33:04;31.13;;;22.80;;
5149;SDS011;2593;52.466;13.436;2023-05-21T06:35:30;30.63;;;21.73;;
5149;SDS011;2593;52.466;13.436;2023-05-21T06:37:58;30.17;;;23.20;;
5149;SDS011;2593;52.466;13.436;2023-05-21T06:40:24;35.00;;;23.00;;
5149;SDS011;2593;52.466;13.436;2023-05-21T06:42:50;28.20;;;21.43;;
5149;SDS011;2593;52.466;13.436;2023-05-21T06:45:17;26.40;;;22.00;;
5149;SDS011;2593;52.466;13.436;2023-05-21T06:47:43;32.60;;;20.63;;
5149;SDS011;2593;52.466;13.436;2023-05-21T06:50:09;42.13;;;24.80;;
5149;SDS011;2593;52.466;13.436;2023-05-21T06:52:35;29.23;;;21.67;;
5149;SDS011;2593;52.466;13.436;2023-05-21T06:55:01;32.80;;;21.30;;
5149;SDS011;2593;52.466;13.436;2023-05-21T06:57:27;31.17;;;21.00;;
5149;SDS011;2593;52.466;13.436;2023-05-21T06:59:53;30.13;;;21.40;;
5149;SDS011;2593;52.466;13.436;2023-05-21T07:02:19;33.43;;;22.20;;
5149;SDS011;2593;52.466;13.436;2023-05-21T07:04:45;30.40;;;21.17;;
5149;SDS011;2593;52.466;13.436;2023-05-21T07:07:12;32.67;;;20.73;;
5149;SDS011;2593;52.466;13.436;2023-05-21T07:09:38;26.63;;;20.83;;
5149;SDS011;2593;52.466;13.436;2023-05-21T07:12:04;26.40;;;19.63;;
5149;SDS011;2593;52.466;13.436;2023-05-21T07:14:30;27.73;;;18.73;;
5149;SDS011;2593;52.466;13.436;2023-05-21T07:16:56;29.83;;;21.00;;
5149;SDS011;2593;52.466;13.436;2023-05-21T07:19:22;31.47;;;19.80;;
5149;SDS011;2593;52.466;13.436;2023-05-21T07:21:48;25.93;;;18.83;;
5149;SDS011;2593;52.466;13.436;2023-05-21T07:24:14;27.53;;;19.23;;
5149;SDS011;2593;52.466;13.436;2023-05-21T07:26:40;23.27;;;18.03;;
5149;SDS011;2593;52.466;13.436;2023-05-21T07:29:06;26.83;;;18.60;;
5149;SDS011;2593;52.466;13.436;2023-05-21T07:31:33;23.17;;;19.17;;
5149;SDS011;2593;52.466;13.436;2023-05-21T07:33:59;23.20;;;16.90;;
5149;SDS011;2593;52.466;13.436;2023-05-21T07:36:25;24.30;;;17.13;;
5149;SDS011;2593;52.466;13.436;2023-05-21T07:38:51;23.43;;;17.40;;
5149;SDS011;2593;52.466;13.436;2023-05-21T07:41:17;19.70;;;16.30;;
5149;SDS011;2593;52.466;13.436;2023-05-21T07:43:43;21.00;;;17.33;;
5149;SDS011;2593;52.466;13.436;2023-05-21T07:46:09;24.00;;;16.40;;
5149;SDS011;2593;52.466;13.436;2023-05-21T07:48:35;18.20;;;16.30;;
5149;SDS011;2593;52.466;13.436;2023-05-21T07:51:01;23.10;;;15.80;;
5149;SDS011;2593;52.466;13.436;2023-05-21T07:53:27;23.83;;;16.37;;
5149;SDS011;2593;52.466;13.436;2023-05-21T07:55:56;26.00;;;17.70;;
5149;SDS011;2593;52.466;13.436;2023-05-21T07:58:22;20.97;;;16.77;;
5149;SDS011;2593;52.466;13.436;2023-05-21T08:00:48;21.53;;;15.10;;
5149;SDS011;2593;52.466;13.436;2023-05-21T08:03:15;25.03;;;16.30;;
5149;SDS011;2593;52.466;13.436;2023-05-21T08:05:42;19.93;;;16.20;;
5149;SDS011;2593;52.466;13.436;2023-05-21T08:08:15;26.13;;;14.93;;
5149;SDS011;2593;52.466;13.436;2023-05-21T08:10:41;27.70;;;16.07;;
5149;SDS011;2593;52.466;13.436;2023-05-21T08:13:07;21.63;;;14.97;;
5149;SDS011;2593;52.466;13.436;2023-05-21T08:15:33;23.53;;;14.57;;
5149;SDS011;2593;52.466;13.436;2023-05-21T08:17:59;27.10;;;14.77;;
5149;SDS011;2593;52.466;13.436;2023-05-21T08:20:25;24.77;;;14.33;;
5149;SDS011;2593;52.466;13.436;2023-05-21T08:22:53;23.47;;;13.73;;
5149;SDS011;2593;52.466;13.436;2023-05-21T08:25:19;20.37;;;13.47;;
5149;SDS011;2593;52.466;13.436;2023-05-21T08:27:45;16.57;;;13.43;;
5149;SDS011;2593;52.466;13.436;2023-05-21T08:30:11;19.37;;;12.60;;
5149;SDS011;2593;52.466;13.436;2023-05-21T08:32:37;22.95;;;11.90;;
5149;SDS011;2593;52.466;13.436;2023-05-21T08:35:04;15.02;;;12.40;;
5149;SDS011;2593;52.466;13.436;2023-05-21T08:37:30;11.80;;;10.63;;
5149;SDS011;2593;52.466;13.436;2023-05-21T08:39:56;17.85;;;12.13;;
5149;SDS011;2593;52.466;13.436;2023-05-21T08:44:58;17.55;;;10.23;;
5149;SDS011;2593;52.466;13.436;2023-05-21T08:47:25;12.55;;;11.07;;
5149;SDS011;2593;52.466;13.436;2023-05-21T08:49:51;15.70;;;10.20;;
5149;SDS011;2593;52.466;13.436;2023-05-21T08:52:18;14.63;;;10.68;;
5149;SDS011;2593;52.466;13.436;2023-05-21T08:54:45;10.65;;;9.55;;
5149;SDS011;2593;52.466;13.436;2023-05-21T08:57:12;10.20;;;8.93;;
5149;SDS011;2593;52.466;13.436;2023-05-21T08:59:38;14.98;;;11.02;;
5149;SDS011;2593;52.466;13.436;2023-05-21T09:02:08;11.52;;;9.38;;
5149;SDS011;2593;52.466;13.436;2023-05-21T09:04:37;15.23;;;9.23;;
5149;SDS011;2593;52.466;13.436;2023-05-21T09:07:03;10.40;;;9.40;;
5149;SDS011;2593;52.466;13.436;2023-05-21T09:09:31;17.63;;;9.48;;
5149;SDS011;2593;52.466;13.436;2023-05-21T09:11:58;17.52;;;10.50;;
5149;SDS011;2593;52.466;13.436;2023-05-21T09:14:25;17.17;;;10.00;;
5149;SDS011;2593;52.466;13.436;2023-05-21T09:16:51;10.70;;;9.70;;
5149;SDS011;2593;52.466;13.436;2023-05-21T09:19:20;15.80;;;8.50;;
5149;SDS011;2593;52.466;13.436;2023-05-21T09:21:46;18.83;;;8.63;;
5149;SDS011;2593;52.466;13.436;2023-05-21T09:24:12;11.90;;;8.60;;
5149;SDS011;2593;52.466;13.436;2023-05-21T09:26:42;13.13;;;9.15;;
5149;SDS011;2593;52.466;13.436;2023-05-21T09:29:08;20.70;;;8.63;;
5149;SDS011;2593;52.466;13.436;2023-05-21T09:31:34;9.00;;;8.05;;
5149;SDS011;2593;52.466;13.436;2023-05-21T09:34:00;9.23;;;8.43;;
5149;SDS011;2593;52.466;13.436;2023-05-21T09:36:26;11.77;;;8.13;;
5149;SDS011;2593;52.466;13.436;2023-05-21T09:38:53;14.82;;;8.80;;
5149;SDS011;2593;52.466;13.436;2023-05-21T09:41:19;11.13;;;8.70;;
5149;SDS011;2593;52.466;13.436;2023-05-21T09:43:59;20.75;;;8.57;;
5149;SDS011;2593;52.466;13.436;2023-05-21T09:46:26;10.13;;;8.68;;
5149;SDS011;2593;52.466;13.436;2023-05-21T09:48:52;11.82;;;9.20;;
5149;SDS011;2593;52.466;13.436;2023-05-21T09:51:18;15.77;;;10.93;;
5149;SDS011;2593;52.466;13.436;2023-05-21T09:56:15;11.73;;;8.43;;
5149;SDS011;2593;52.466;13.436;2023-05-21T09:58:41;11.43;;;9.00;;
5149;SDS011;2593;52.466;13.436;2023-05-21T10:01:09;15.03;;;7.70;;
5149;SDS011;2593;52.466;13.436;2023-05-21T10:03:36;15.07;;;7.55;;
5149;SDS011;2593;52.466;13.436;2023-05-21T10:06:09;17.40;;;7.37;;
5149;SDS011;2593;52.466;13.436;2023-05-21T10:08:35;11.90;;;7.27;;
5149;SDS011;2593;52.466;13.436;2023-05-21T10:11:05;12.80;;;9.53;;
5149;SDS011;2593;52.466;13.436;2023-05-21T10:13:31;12.47;;;8.83;;
5149;SDS011;2593;52.466;13.436;2023-05-21T10:16:00;8.90;;;8.05;;
5149;SDS011;2593;52.466;13.436;2023-05-21T10:18:27;11.60;;;8.18;;
5149;SDS011;2593;52.466;13.436;2023-05-21T10:20:54;14.00;;;8.17;;
5149;SDS011;2593;52.466;13.436;2023-05-21T10:23:22;23.90;;;7.93;;
5149;SDS011;2593;52.466;13.436;2023-05-21T10:25:48;9.27;;;7.03;;
5149;SDS011;2593;52.466;13.436;2023-05-21T10:28:15;43.17;;;7.47;;
5149;SDS011;2593;52.466;13.436;2023-05-21T10:30:42;7.87;;;6.73;;
5149;SDS011;2593;52.466;13.436;2023-05-21T10:33:09;14.10;;;7.30;;
5149;SDS011;2593;52.466;13.436;2023-05-21T10:35:37;7.90;;;6.50;;
5149;SDS011;2593;52.466;13.436;2023-05-21T10:38:05;22.95;;;8.13;;
5149;SDS011;2593;52.466;13.436;2023-05-21T10:40:31;8.43;;;6.70;;
5149;SDS011;2593;52.466;13.436;2023-05-21T11:01:19;7.80;;;6.80;;
5149;SDS011;2593;52.466;13.436;2023-05-21T11:03:45;7.93;;;6.20;;
5149;SDS011;2593;52.466;13.436;2023-05-21T11:06:20;8.50;;;6.40;;
5149;SDS011;2593;52.466;13.436;2023-05-21T11:08:47;8.03;;;6.40;;
5149;SDS011;2593;52.466;13.436;2023-05-21T11:11:13;11.23;;;7.00;;
5149;SDS011;2593;52.466;13.436;2023-05-21T11:14:01;6.27;;;5.73;;
5149;SDS011;2593;52.466;13.436;2023-05-21T11:16:47;7.33;;;6.63;;
5149;SDS011;2593;52.466;13.436;2023-05-21T11:19:17;6.27;;;5.67;;
5149;SDS011;2593;52.466;13.436;2023-05-21T11:21:43;7.90;;;5.97;;
5149;SDS011;2593;52.466;13.436;2023-05-21T11:24:18;9.97;;;6.30;;
5149;SDS011;2593;52.466;13.436;2023-05-21T11:29:17;6.47;;;5.87;;
5149;SDS011;2593;52.466;13.436;2023-05-21T11:31:44;11.03;;;6.50;;
5149;SDS011;2593;52.466;13.436;2023-05-21T11:34:11;8.70;;;6.70;;
5149;SDS011;2593;52.466;13.436;2023-05-21T11:36:43;8.57;;;6.77;;
5149;SDS011;2593;52.466;13.436;2023-05-21T11:44:44;6.23;;;5.73;;
5149;SDS011;2593;52.466;13.436;2023-05-21T11:47:11;9.70;;;7.00;;
5149;SDS011;2593;52.466;13.436;2023-05-21T11:49:38;9.33;;;6.93;;
5149;SDS011;2593;52.466;13.436;2023-05-21T11:52:05;6.83;;;6.23;;
5149;SDS011;2593;52.466;13.436;2023-05-21T11:54:32;13.20;;;7.07;;
5149;SDS011;2593;52.466;13.436;2023-05-21T11:57:00;7.27;;;5.93;;
5149;SDS011;2593;52.466;13.436;2023-05-21T11:59:26;9.30;;;6.87;;
5149;SDS011;2593;52.466;13.436;2023-05-21T12:01:53;9.27;;;5.77;;
5149;SDS011;2593;52.466;13.436;2023-05-21T12:04:20;6.72;;;6.13;;
5149;SDS011;2593;52.466;13.436;2023-05-21T12:06:46;6.57;;;5.82;;
5149;SDS011;2593;52.466;13.436;2023-05-21T12:09:14;6.65;;;6.00;;
5149;SDS011;2593;52.466;13.436;2023-05-21T12:11:40;9.50;;;6.13;;
5149;SDS011;2593;52.466;13.436;2023-05-21T12:14:07;13.33;;;7.40;;
5149;SDS011;2593;52.466;13.436;2023-05-21T12:16:33;10.37;;;6.10;;
5149;SDS011;2593;52.466;13.436;2023-05-21T12:19:00;8.10;;;6.90;;
5149;SDS011;2593;52.466;13.436;2023-05-21T12:21:27;8.73;;;6.80;;
5149;SDS011;2593;52.466;13.436;2023-05-21T12:23:54;8.57;;;6.53;;
5149;SDS011;2593;52.466;13.436;2023-05-21T12:26:20;6.73;;;6.07;;
5149;SDS011;2593;52.466;13.436;2023-05-21T12:28:49;10.30;;;6.00;;
5149;SDS011;2593;52.466;13.436;2023-05-21T12:31:15;20.93;;;7.57;;
5149;SDS011;2593;52.466;13.436;2023-05-21T12:33:46;7.27;;;6.50;;
5149;SDS011;2593;52.466;13.436;2023-05-21T12:36:26;6.87;;;6.27;;
5149;SDS011;2593;52.466;13.436;2023-05-21T12:38:52;10.37;;;6.70;;
5149;SDS011;2593;52.466;13.436;2023-05-21T12:41:20;10.90;;;6.80;;
5149;SDS011;2593;52.466;13.436;2023-05-21T12:43:47;9.23;;;6.60;;
5149;SDS011;2593;52.466;13.436;2023-05-21T12:46:13;15.63;;;6.45;;
5149;SDS011;2593;52.466;13.436;2023-05-21T12:48:47;14.10;;;6.47;;
5149;SDS011;2593;52.466;13.436;2023-05-21T12:51:13;11.55;;;7.05;;
5149;SDS011;2593;52.466;13.436;2023-05-21T12:53:42;9.43;;;7.00;;
5149;SDS011;2593;52.466;13.436;2023-05-21T12:56:11;10.17;;;7.30;;
5149;SDS011;2593;52.466;13.436;2023-05-21T12:58:38;9.32;;;5.88;;
5149;SDS011;2593;52.466;13.436;2023-05-21T13:01:05;7.97;;;6.50;;
5149;SDS011;2593;52.466;13.436;2023-05-21T13:03:32;8.53;;;6.50;;
5149;SDS011;2593;52.466;13.436;2023-05-21T13:05:58;8.68;;;6.22;;
5149;SDS011;2593;52.466;13.436;2023-05-21T13:08:25;8.68;;;6.30;;
5149;SDS011;2593;52.466;13.436;2023-05-21T13:10:51;8.88;;;6.45;;
5149;SDS011;2593;52.466;13.436;2023-05-21T13:13:17;14.43;;;6.10;;
5149;SDS011;2593;52.466;13.436;2023-05-21T13:15:43;13.20;;;6.37;;
5149;SDS011;2593;52.466;13.436;2023-05-21T13:18:09;6.80;;;6.10;;
5149;SDS011;2593;52.466;13.436;2023-05-21T13:20:39;7.82;;;6.00;;
5149;SDS011;2593;52.466;13.436;2023-05-21T13:23:05;7.22;;;6.25;;
5149;SDS011;2593;52.466;13.436;2023-05-21T13:25:31;6.90;;;5.80;;
5149;SDS011;2593;52.466;13.436;2023-05-21T13:28:00;10.43;;;6.28;;
5149;SDS011;2593;52.466;13.436;2023-05-21T13:30:26;8.77;;;7.03;;
5149;SDS011;2593;52.466;13.436;2023-05-21T13:32:53;10.70;;;6.07;;
5149;SDS011;2593;52.466;13.436;2023-05-21T13:35:19;9.32;;;6.85;;
5149;SDS011;2593;52.466;13.436;2023-05-21T13:37:45;13.23;;;7.03;;
5149;SDS011;2593;52.466;13.436;2023-05-21T13:40:12;8.73;;;6.30;;
5149;SDS011;2593;52.466;13.436;2023-05-21T13:42:38;10.00;;;6.90;;
5149;SDS011;2593;52.466;13.436;2023-05-21T13:45:08;7.50;;;6.27;;
5149;SDS011;2593;52.466;13.436;2023-05-21T13:47:35;7.03;;;6.43;;
5149;SDS011;2593;52.466;13.436;2023-05-21T13:50:01;10.00;;;6.80;;
5149;SDS011;2593;52.466;13.436;2023-05-21T13:52:27;9.88;;;6.25;;
5149;SDS011;2593;52.466;13.436;2023-05-21T13:54:53;13.40;;;6.70;;
5149;SDS011;2593;52.466;13.436;2023-05-21T13:57:20;7.73;;;6.97;;
5149;SDS011;2593;52.466;13.436;2023-05-21T13:59:46;9.48;;;6.35;;
5149;SDS011;2593;52.466;13.436;2023-05-21T14:02:12;10.15;;;7.03;;
5149;SDS011;2593;52.466;13.436;2023-05-21T14:04:38;8.00;;;6.63;;
5149;SDS011;2593;52.466;13.436;2023-05-21T14:07:04;8.75;;;5.95;;
5149;SDS011;2593;52.466;13.436;2023-05-21T14:09:31;9.60;;;6.17;;
5149;SDS011;2593;52.466;13.436;2023-05-21T14:11:57;10.00;;;6.73;;
5149;SDS011;2593;52.466;13.436;2023-05-21T14:14:23;7.37;;;6.30;;
5149;SDS011;2593;52.466;13.436;2023-05-21T14:16:49;16.70;;;6.88;;
5149;SDS011;2593;52.466;13.436;2023-05-21T14:19:16;6.63;;;5.82;;
5149;SDS011;2593;52.466;13.436;2023-05-21T14:21:42;9.63;;;7.03;;
5149;SDS011;2593;52.466;13.436;2023-05-21T14:24:08;8.43;;;6.30;;
5149;SDS011;2593;52.466;13.436;2023-05-21T14:26:36;8.83;;;5.83;;
5149;SDS011;2593;52.466;13.436;2023-05-21T14:29:02;13.27;;;6.53;;
5149;SDS011;2593;52.466;13.436;2023-05-21T14:31:28;10.90;;;6.67;;
5149;SDS011;2593;52.466;13.436;2023-05-21T14:33:54;10.00;;;6.20;;
5149;SDS011;2593;52.466;13.436;2023-05-21T14:36:20;10.50;;;6.20;;
5149;SDS011;2593;52.466;13.436;2023-05-21T14:38:46;7.80;;;6.00;;
5149;SDS011;2593;52.466;13.436;2023-05-21T14:41:12;9.17;;;6.53;;
5149;SDS011;2593;52.466;13.436;2023-05-21T14:43:38;17.97;;;6.80;;
5149;SDS011;2593;52.466;13.436;2023-05-21T14:46:04;7.20;;;6.50;;
5149;SDS011;2593;52.466;13.436;2023-05-21T14:48:30;6.43;;;5.70;;
5149;SDS011;2593;52.466;13.436;2023-05-21T14:50:57;12.33;;;5.90;;
5149;SDS011;2593;52.466;13.436;2023-05-21T14:53:23;8.10;;;5.97;;
5149;SDS011;2593;52.466;13.436;2023-05-21T14:55:49;9.23;;;5.80;;
5149;SDS011;2593;52.466;13.436;2023-05-21T14:58:16;7.70;;;6.00;;
5149;SDS011;2593;52.466;13.436;2023-05-21T15:00:42;9.33;;;6.30;;
5149;SDS011;2593;52.466;13.436;2023-05-21T15:03:08;17.30;;;5.97;;
5149;SDS011;2593;52.466;13.436;2023-05-21T15:05:36;6.80;;;6.00;;
5149;SDS011;2593;52.466;13.436;2023-05-21T15:08:02;19.67;;;5.13;;
5149;SDS011;2593;52.466;13.436;2023-05-21T15:10:29;10.90;;;5.87;;
5149;SDS011;2593;52.466;13.436;2023-05-21T15:12:55;13.60;;;6.03;;